Terminal Aerodrome Forecast
Issued by NWS Portland, OR

Home | Current Version | Previous Version | Text Only | Print | Product List | Glossary On
Versions: 1 2 3 4 5 6 7 8 9 10 11 12 13 14 15 16 17 18 19
000
FTUS46 KPQR 301332 AAA
TAFEUG
TAF AMD
KEUG 301332Z 3014/3112 04004KT 6SM -RA SCT003 OVC045
      TEMPO 3014/3017 2SM -RA BR BKN003
     FM301700 17004KT 4SM -RA BR SCT015 OVC050
     FM302100 19004KT 6SM -RA OVC050
     FM310300 VRB04KT 4SM -RA BR BKN015 OVC035=

USA.gov is the U.S. government's official web portal to all federal, state and local government web resources and services.